createdAt,value
2023-03-01T00:01:24.577Z,98453.22
2023-03-01T00:03:52.306Z,98459.47
2023-03-01T00:06:20.214Z,98460.72
2023-03-01T00:08:46.967Z,98456.06
2023-03-01T00:11:21.559Z,98453.63
2023-03-01T00:13:50.074Z,98456.06
2023-03-01T00:16:23.009Z,98439.31
2023-03-01T00:18:49.870Z,98455.41
2023-03-01T00:21:16.319Z,98457.75
2023-03-01T00:23:42.993Z,98447.06
2023-03-01T00:26:13.383Z,98452.97
2023-03-01T00:28:39.897Z,98453.81
2023-03-01T00:31:12.617Z,98449.25
2023-03-01T00:33:39.499Z,98447.56
2023-03-01T00:36:06.609Z,98441.50
2023-03-01T00:38:39.925Z,98452.66
2023-03-01T00:41:15.284Z,98454.34
2023-03-01T00:43:42.163Z,98459.84
2023-03-01T00:46:12.280Z,98454.16
2023-03-01T00:48:38.912Z,98458.81
2023-03-01T00:51:13.495Z,98452.94
2023-03-01T00:53:40.432Z,98451.25
2023-03-01T00:56:09.434Z,98439.66
2023-03-01T00:58:37.238Z,98447.84
2023-03-01T01:01:21.841Z,98446.03
2023-03-01T01:04:03.369Z,98452.78
2023-03-01T01:06:33.615Z,98447.38
2023-03-01T01:09:01.042Z,98449.31
2023-03-01T01:11:29.502Z,98445.34
2023-03-01T01:13:56.511Z,98430.56
2023-03-01T01:16:25.799Z,98443.66
2023-03-01T01:18:52.552Z,98421.91
2023-03-01T01:21:21.249Z,98430.44
2023-03-01T01:23:48.206Z,98434.69
2023-03-01T01:26:21.812Z,98426.94
2023-03-01T01:28:49.074Z,98441.66
2023-03-01T01:31:16.648Z,98433.06
2023-03-01T01:33:43.390Z,98389.53
2023-03-01T01:36:10.432Z,98419.50
2023-03-01T01:38:43.401Z,98421.47
2023-03-01T01:41:12.448Z,98425.44
2023-03-01T01:43:48.307Z,98429.34
2023-03-01T01:46:33.451Z,98419.50
2023-03-01T01:49:06.521Z,98417.47
2023-03-01T01:51:39.597Z,98413.34
2023-03-01T01:54:27.859Z,98419.94
2023-03-01T01:57:01.238Z,98408.47
2023-03-01T01:59:29.518Z,98400.59
2023-03-01T02:01:56.196Z,98401.00
2023-03-01T02:04:23.754Z,98396.25
2023-03-01T02:07:00.496Z,98406.38
2023-03-01T02:09:28.060Z,98392.22
2023-03-01T02:11:55.332Z,98386.44
2023-03-01T02:14:21.860Z,98395.66
2023-03-01T02:16:48.911Z,98393.25
2023-03-01T02:19:32.928Z,98398.25
2023-03-01T02:22:28.709Z,98385.34
2023-03-01T02:25:04.216Z,98383.00
2023-03-01T02:27:43.686Z,98387.75
2023-03-01T02:30:13.346Z,98371.28
2023-03-01T02:32:42.695Z,98368.09
2023-03-01T02:35:15.217Z,98369.59
2023-03-01T02:37:44.120Z,98362.91
2023-03-01T02:40:17.756Z,98353.97
2023-03-01T02:42:56.789Z,98354.16
2023-03-01T02:45:24.605Z,98355.94
2023-03-01T02:47:51.321Z,98344.59
2023-03-01T02:50:53.748Z,98339.78
2023-03-01T02:53:35.627Z,98341.75
2023-03-01T02:56:02.881Z,98340.13
2023-03-01T02:58:29.481Z,98332.25
2023-03-01T03:00:57.419Z,98338.09
2023-03-01T03:03:23.980Z,98331.41
2023-03-01T03:05:50.486Z,98326.19
2023-03-01T03:08:24.849Z,98344.34
2023-03-01T03:10:51.704Z,98336.81
2023-03-01T03:13:18.266Z,98342.94
2023-03-01T03:15:44.990Z,98329.56
2023-03-01T03:18:14.817Z,98348.13
2023-03-01T03:20:44.999Z,98338.28
2023-03-01T03:23:11.903Z,98327.59
2023-03-01T03:25:38.943Z,98323.69
2023-03-01T03:28:10.586Z,98330.94
2023-03-01T03:30:40.762Z,98328.16
2023-03-01T03:33:10.616Z,98335.13
2023-03-01T03:35:47.492Z,98317.19
2023-03-01T03:38:16.766Z,98317.66
2023-03-01T03:40:49.117Z,98322.03
2023-03-01T03:43:22.548Z,98318.13
2023-03-01T03:45:50.940Z,98322.56
2023-03-01T03:48:18.707Z,98301.56
2023-03-01T03:50:50.604Z,98302.94
2023-03-01T03:53:17.662Z,98309.44
2023-03-01T03:55:45.463Z,98316.22
2023-03-01T03:58:12.664Z,98316.34
2023-03-01T04:00:41.940Z,98317.19
2023-03-01T04:03:09.530Z,98314.72
2023-03-01T04:05:37.191Z,98305.63
2023-03-01T04:08:04.451Z,98315.38
2023-03-01T04:10:33.283Z,98302.94
2023-03-01T04:12:59.822Z,98292.78
2023-03-01T04:15:27.939Z,98282.00
2023-03-01T04:17:55.641Z,98296.66
2023-03-01T04:20:26.066Z,98298.53
2023-03-01T04:23:11.400Z,98295.84
2023-03-01T04:25:40.134Z,98284.94
2023-03-01T04:28:07.205Z,98294.25
2023-03-01T04:30:36.881Z,98285.59
2023-03-01T04:33:07.718Z,98280.75
2023-03-01T04:35:35.919Z,98285.53
2023-03-01T04:38:02.772Z,98285.44
2023-03-01T04:40:29.498Z,98298.16
2023-03-01T04:42:56.048Z,98288.78
2023-03-01T04:45:22.582Z,98287.56
2023-03-01T04:47:53.136Z,98285.53
2023-03-01T04:50:24.677Z,98288.91
2023-03-01T04:52:51.492Z,98289.09
2023-03-01T04:55:20.650Z,98272.09
2023-03-01T04:57:47.225Z,98278.94
2023-03-01T05:00:21.036Z,98285.56
2023-03-01T05:02:54.665Z,98286.59
2023-03-01T05:05:26.651Z,98297.16
2023-03-01T05:08:01.660Z,98298.84
2023-03-01T05:10:32.793Z,98297.81
2023-03-01T05:13:00.279Z,98296.53
2023-03-01T05:15:28.900Z,98279.44
2023-03-01T05:17:59.538Z,98294.22
2023-03-01T05:20:27.678Z,98297.00
2023-03-01T05:22:56.884Z,98292.63
2023-03-01T05:25:23.613Z,98286.59
2023-03-01T05:27:52.252Z,98283.69
2023-03-01T05:30:19.395Z,98287.97
2023-03-01T05:32:48.731Z,98292.06
2023-03-01T05:35:17.659Z,98288.56
2023-03-01T05:37:45.957Z,98277.56
2023-03-01T05:40:18.050Z,98282.19
2023-03-01T05:42:46.161Z,98286.41
2023-03-01T05:45:13.426Z,98270.41
2023-03-01T05:47:44.482Z,98274.31
2023-03-01T05:50:22.900Z,98277.09
2023-03-01T05:53:02.153Z,98284.53
2023-03-01T05:55:30.065Z,98282.50
2023-03-01T05:57:59.542Z,98282.19
2023-03-01T06:00:26.180Z,98272.16
2023-03-01T06:02:57.546Z,98285.94
2023-03-01T06:05:25.084Z,98248.56
2023-03-01T06:07:54.195Z,98271.25
2023-03-01T06:10:22.363Z,98272.44
2023-03-01T06:12:49.390Z,98267.78
2023-03-01T06:15:17.382Z,98259.41
2023-03-01T06:17:45.565Z,98269.84
2023-03-01T06:20:13.714Z,98275.69
2023-03-01T06:22:40.484Z,98263.53
2023-03-01T06:25:08.825Z,98259.91
2023-03-01T06:27:35.774Z,98272.81
2023-03-01T06:30:02.607Z,98270.50
2023-03-01T06:32:29.088Z,98256.47
2023-03-01T06:34:55.559Z,98257.78
2023-03-01T06:37:22.018Z,98266.22
2023-03-01T06:39:48.439Z,98268.72
2023-03-01T06:42:14.875Z,98280.75
2023-03-01T06:44:41.340Z,98272.81
2023-03-01T06:47:07.769Z,98265.28
2023-03-01T06:49:34.238Z,98278.22
2023-03-01T06:52:00.712Z,98274.97
2023-03-01T06:54:27.193Z,98286.94
2023-03-01T06:56:53.701Z,98273.59
2023-03-01T06:59:20.449Z,98279.78
2023-03-01T07:01:47.006Z,98283.22
2023-03-01T07:04:14.176Z,98281.75
2023-03-01T07:06:40.832Z,98266.97
2023-03-01T07:09:07.327Z,98284.00
2023-03-01T07:11:34.080Z,98275.88
2023-03-01T07:14:01.117Z,98261.50
2023-03-01T07:16:27.845Z,98270.78
2023-03-01T07:18:54.393Z,98256.00
2023-03-01T07:21:20.855Z,98269.03
2023-03-01T07:23:49.722Z,98261.09
2023-03-01T07:26:16.138Z,98257.66
2023-03-01T07:28:42.673Z,98270.47
2023-03-01T07:31:09.125Z,98259.06
2023-03-01T07:33:35.736Z,98259.41
2023-03-01T07:36:04.740Z,98252.63
2023-03-01T07:38:31.336Z,98249.81
2023-03-01T07:41:02.913Z,98247.66
2023-03-01T07:43:30.715Z,98224.19
2023-03-01T07:46:04.065Z,98236.19
2023-03-01T07:48:31.520Z,98230.22
2023-03-01T07:51:02.696Z,98244.19
2023-03-01T07:53:32.587Z,98245.06
2023-03-01T07:56:06.506Z,98244.44
2023-03-01T07:58:35.687Z,98235.28
2023-03-01T08:01:08.416Z,98238.34
2023-03-01T08:03:35.837Z,98228.34
2023-03-01T08:06:04.429Z,98200.09
2023-03-01T08:08:32.591Z,98238.97
2023-03-01T08:11:03.908Z,98225.09
2023-03-01T08:13:33.968Z,98234.50
2023-03-01T08:16:09.572Z,98219.25
2023-03-01T08:18:36.318Z,98233.88
2023-03-01T08:21:04.647Z,98227.63
2023-03-01T08:23:31.321Z,98228.03
2023-03-01T08:26:07.006Z,98219.56
2023-03-01T08:28:33.772Z,98212.41
2023-03-01T08:31:03.904Z,98225.75
2023-03-01T08:33:33.312Z,98214.84
2023-03-01T08:36:07.834Z,98211.09
2023-03-01T08:38:35.590Z,98172.84
2023-03-01T08:41:03.575Z,98221.13
2023-03-01T08:43:31.386Z,98219.94
2023-03-01T08:46:00.256Z,98176.22
2023-03-01T08:48:31.421Z,98201.50
2023-03-01T08:51:01.259Z,98208.03
2023-03-01T08:53:30.191Z,98190.91
2023-03-01T08:56:03.666Z,98197.66
2023-03-01T08:58:33.674Z,98220.28
2023-03-01T09:01:08.666Z,98219.69
2023-03-01T09:03:35.110Z,98204.22
2023-03-01T09:06:03.518Z,98175.66
2023-03-01T09:08:36.062Z,98193.50
2023-03-01T09:11:04.481Z,98191.50
2023-03-01T09:13:34.296Z,98195.56
2023-03-01T09:16:03.686Z,98198.47
2023-03-01T09:18:34.043Z,98193.59
2023-03-01T09:21:10.180Z,98191.50
2023-03-01T09:23:39.769Z,98183.06
2023-03-01T09:26:12.252Z,98163.63
2023-03-01T09:28:39.406Z,98151.34
2023-03-01T09:31:06.281Z,98158.91
2023-03-01T09:33:33.967Z,98166.47
2023-03-01T09:36:06.373Z,98171.56
2023-03-01T09:38:32.838Z,98149.81
2023-03-01T09:41:02.614Z,98172.13
2023-03-01T09:43:56.560Z,98171.00
2023-03-01T09:46:44.041Z,98146.34
2023-03-01T09:49:20.667Z,98134.41
2023-03-01T09:52:35.026Z,98149.88
2023-03-01T09:55:01.860Z,98144.22
2023-03-01T09:57:56.865Z,98145.50
2023-03-01T10:00:44.505Z,98138.19
2023-03-01T10:03:45.164Z,98131.28
2023-03-01T10:06:34.416Z,98130.59
2023-03-01T10:09:18.645Z,98107.19
2023-03-01T10:11:56.250Z,98112.94
2023-03-01T10:14:44.893Z,98106.75
2023-03-01T10:17:40.434Z,98120.50
2023-03-01T10:20:39.847Z,98113.69
2023-03-01T10:23:09.844Z,98120.63
2023-03-01T10:25:40.873Z,98114.19
2023-03-01T10:28:21.115Z,98113.84
2023-03-01T10:30:47.818Z,98100.50
2023-03-01T10:33:31.903Z,98102.13
2023-03-01T10:36:01.591Z,98055.44
2023-03-01T10:38:32.481Z,98089.13
2023-03-01T10:41:06.933Z,98086.66
2023-03-01T10:43:46.425Z,98087.38
2023-03-01T10:46:32.527Z,98087.81
2023-03-01T10:49:21.589Z,98085.06
2023-03-01T10:51:50.928Z,98082.00
2023-03-01T10:54:32.906Z,98082.47
2023-03-01T10:57:05.135Z,98078.28
2023-03-01T10:59:31.610Z,98070.00
2023-03-01T11:02:24.463Z,98049.28
2023-03-01T11:05:02.510Z,98068.19
2023-03-01T11:07:49.061Z,98066.16
2023-03-01T11:10:24.670Z,98054.41
2023-03-01T11:13:06.721Z,98058.78
2023-03-01T11:15:33.604Z,98058.94
2023-03-01T11:18:13.730Z,97997.94
2023-03-01T11:20:42.322Z,98054.16
2023-03-01T11:23:14.576Z,98060.31
2023-03-01T11:25:50.665Z,98038.47
2023-03-01T11:28:20.653Z,98060.63
2023-03-01T11:31:10.205Z,98064.50
2023-03-01T11:33:49.652Z,98059.47
2023-03-01T11:36:17.065Z,98051.59
2023-03-01T11:38:44.510Z,98039.72
2023-03-01T11:41:37.724Z,98040.88
2023-03-01T11:44:32.633Z,98041.38
2023-03-01T11:47:37.238Z,98040.59
2023-03-01T11:50:09.844Z,98034.88
2023-03-01T11:52:50.907Z,98033.78
2023-03-01T11:55:24.425Z,97985.81
2023-03-01T11:58:02.322Z,98025.59
2023-03-01T12:01:05.438Z,98020.84
2023-03-01T12:04:01.534Z,98013.53
2023-03-01T12:06:42.813Z,98010.47
2023-03-01T12:09:31.568Z,98021.41
2023-03-01T12:12:06.973Z,98030.66
2023-03-01T12:15:03.775Z,98028.56
2023-03-01T12:18:00.531Z,98025.06
2023-03-01T12:20:53.152Z,98010.63
2023-03-01T12:23:50.616Z,98018.47
2023-03-01T12:26:34.739Z,98007.63
2023-03-01T12:29:19.602Z,97994.09
2023-03-01T12:32:00.997Z,97987.72
2023-03-01T12:35:05.343Z,97973.38
2023-03-01T12:37:48.291Z,97966.31
2023-03-01T12:40:56.505Z,97971.31
2023-03-01T12:43:34.952Z,97982.13
2023-03-01T12:46:11.375Z,97949.00
2023-03-01T12:48:49.022Z,97988.91
2023-03-01T12:51:18.689Z,97985.38
2023-03-01T12:53:49.069Z,97968.78
2023-03-01T12:56:22.637Z,97962.88
2023-03-01T12:58:58.724Z,97976.56
2023-03-01T13:01:42.641Z,97959.47
2023-03-01T13:04:41.523Z,97964.16
2023-03-01T13:07:25.712Z,97961.50
2023-03-01T13:10:30.097Z,97954.81
2023-03-01T13:12:56.515Z,97956.97
2023-03-01T13:15:31.704Z,97952.38
2023-03-01T13:18:02.693Z,97934.38
2023-03-01T13:20:44.392Z,97953.69
2023-03-01T13:23:22.889Z,97948.53
2023-03-01T13:26:09.664Z,97946.69
2023-03-01T13:28:45.121Z,97943.78
2023-03-01T13:31:32.070Z,97934.66
2023-03-01T13:34:08.341Z,97931.69
2023-03-01T13:36:38.052Z,97933.44
2023-03-01T13:39:29.526Z,97937.63
2023-03-01T13:42:01.439Z,97933.69
2023-03-01T13:44:33.517Z,97911.78
2023-03-01T13:47:06.174Z,97923.69
2023-03-01T13:50:03.806Z,97872.06
2023-03-01T13:52:44.434Z,97915.88
2023-03-01T13:55:36.045Z,97913.16
2023-03-01T13:58:15.564Z,97890.88
2023-03-01T14:00:42.510Z,97893.97
2023-03-01T14:03:08.993Z,97895.78
2023-03-01T14:05:37.027Z,97890.38
2023-03-01T14:08:05.400Z,97897.56
2023-03-01T14:10:59.727Z,97883.09
2023-03-01T14:13:48.593Z,97902.66
2023-03-01T14:16:41.499Z,97905.13
2023-03-01T14:19:34.296Z,97904.31
2023-03-01T14:22:26.138Z,97847.31
2023-03-01T14:25:02.065Z,97875.69
2023-03-01T14:27:37.344Z,97903.34
2023-03-01T14:30:26.059Z,97904.03
2023-03-01T14:33:02.259Z,97904.56
2023-03-01T14:35:36.736Z,97905.22
2023-03-01T14:38:04.429Z,97901.75
2023-03-01T14:40:37.501Z,97888.66
2023-03-01T14:43:12.508Z,97900.72
2023-03-01T14:45:39.170Z,97909.22
2023-03-01T14:48:07.995Z,97910.59
2023-03-01T14:50:43.384Z,97911.59
2023-03-01T14:53:32.654Z,97911.59
2023-03-01T14:56:05.475Z,97903.50
2023-03-01T14:58:34.462Z,97852.06
2023-03-01T15:01:04.136Z,97882.03
2023-03-01T15:03:46.289Z,97916.19
2023-03-01T15:06:18.009Z,97911.94
2023-03-01T15:08:50.294Z,97901.75
2023-03-01T15:11:19.725Z,97921.50
2023-03-01T15:13:47.494Z,97887.16
2023-03-01T15:16:15.653Z,97912.47
2023-03-01T15:18:54.262Z,97916.97
2023-03-01T15:21:33.340Z,97908.56
2023-03-01T15:24:20.854Z,97860.19
2023-03-01T15:27:01.581Z,97908.38
2023-03-01T15:29:34.184Z,97898.41
2023-03-01T15:32:05.097Z,97902.63
2023-03-01T15:34:39.132Z,97900.47
2023-03-01T15:37:50.740Z,97892.56
2023-03-01T15:40:32.184Z,97900.38
2023-03-01T15:43:08.326Z,97833.06
2023-03-01T15:45:35.250Z,97869.81
2023-03-01T15:48:06.364Z,97903.06
2023-03-01T15:50:40.840Z,97912.34
2023-03-01T15:53:12.596Z,97909.25
2023-03-01T15:55:39.128Z,97910.84
2023-03-01T15:58:11.498Z,97914.91
2023-03-01T16:00:42.234Z,97873.63
2023-03-01T16:03:13.144Z,97898.56
2023-03-01T16:05:42.741Z,97908.66
2023-03-01T16:08:49.574Z,97904.50
2023-03-01T16:11:20.983Z,97911.44
2023-03-01T16:13:47.835Z,97907.13
2023-03-01T16:16:17.409Z,97912.19
2023-03-01T16:18:45.971Z,97916.53
2023-03-01T16:21:26.049Z,97900.00
2023-03-01T16:24:07.498Z,97854.31
2023-03-01T16:26:34.047Z,97901.03
2023-03-01T16:29:03.427Z,97911.63
2023-03-01T16:31:30.952Z,97926.19
2023-03-01T16:34:00.809Z,97927.84
2023-03-01T16:36:32.316Z,97926.19
2023-03-01T16:39:03.611Z,97903.38
2023-03-01T16:41:33.495Z,97924.06
2023-03-01T16:44:03.224Z,97917.84
2023-03-01T16:46:32.790Z,97907.84
2023-03-01T16:49:04.016Z,97922.16
2023-03-01T16:51:31.992Z,97915.41
2023-03-01T16:53:59.957Z,97917.50
2023-03-01T16:56:26.533Z,97902.88
2023-03-01T16:58:53.081Z,97908.13
2023-03-01T17:01:25.210Z,97938.25
2023-03-01T17:03:52.367Z,97933.88
2023-03-01T17:06:25.742Z,97883.69
2023-03-01T17:08:52.317Z,97942.59
2023-03-01T17:11:26.569Z,97939.97
2023-03-01T17:13:53.127Z,97955.03
2023-03-01T17:16:21.535Z,97964.88
2023-03-01T17:18:48.563Z,97957.25
2023-03-01T17:21:15.356Z,97963.78
2023-03-01T17:23:44.605Z,97965.44
2023-03-01T17:26:11.305Z,97956.88
2023-03-01T17:28:44.127Z,97957.84
2023-03-01T17:31:12.818Z,97947.19
2023-03-01T17:33:46.127Z,97931.31
2023-03-01T17:36:12.605Z,97947.34
2023-03-01T17:38:39.182Z,97943.50
2023-03-01T17:41:05.801Z,97945.69
2023-03-01T17:43:34.421Z,97952.75
2023-03-01T17:46:01.712Z,97946.97
2023-03-01T17:48:31.594Z,97955.13
2023-03-01T17:51:00.636Z,97912.25
2023-03-01T17:53:27.329Z,97967.72
2023-03-01T17:56:01.862Z,97963.97
2023-03-01T17:58:30.764Z,97949.06
2023-03-01T18:01:06.506Z,97971.47
2023-03-01T18:03:32.990Z,97971.34
2023-03-01T18:06:11.491Z,97966.75
2023-03-01T18:08:38.124Z,97972.84
2023-03-01T18:11:04.703Z,97973.53
2023-03-01T18:13:31.366Z,97979.34
2023-03-01T18:16:06.380Z,97962.06
2023-03-01T18:18:32.906Z,97975.22
2023-03-01T18:21:01.352Z,97970.50
2023-03-01T18:23:32.435Z,97977.97
2023-03-01T18:26:10.270Z,97951.81
2023-03-01T18:28:38.290Z,97966.47
2023-03-01T18:31:11.492Z,97984.31
2023-03-01T18:33:39.551Z,97985.88
2023-03-01T18:36:13.877Z,97983.38
2023-03-01T18:38:40.572Z,97983.78
2023-03-01T18:41:48.161Z,97954.03
2023-03-01T18:44:15.759Z,97988.91
2023-03-01T18:46:42.367Z,97978.53
2023-03-01T18:49:09.102Z,97984.47
2023-03-01T18:55:42.976Z,97924.16
2023-03-01T18:58:13.707Z,97952.09
2023-03-01T19:00:40.646Z,97956.13
2023-03-01T19:03:07.490Z,97980.47
2023-03-01T19:05:34.389Z,97960.13
2023-03-01T19:08:04.878Z,97964.69
2023-03-01T19:10:34.313Z,97967.88
2023-03-01T19:13:04.070Z,97955.16
2023-03-01T19:15:38.386Z,97923.47
2023-03-01T19:18:06.135Z,97944.63
2023-03-01T19:20:35.588Z,97963.31
2023-03-01T19:23:04.990Z,97958.03
2023-03-01T19:25:33.482Z,97978.53
2023-03-01T19:27:59.987Z,97913.78
2023-03-01T19:30:27.322Z,97947.41
2023-03-01T19:32:54.593Z,97971.59
2023-03-01T19:36:04.222Z,97981.28
2023-03-01T19:38:30.927Z,97951.28
2023-03-01T19:41:30.058Z,97949.59
2023-03-01T19:44:12.676Z,97908.25
2023-03-01T19:46:39.847Z,97903.25
2023-03-01T19:49:30.175Z,97961.22
2023-03-01T19:51:56.681Z,97941.44
2023-03-01T19:54:23.536Z,97950.28
2023-03-01T19:56:51.331Z,97974.25
2023-03-01T19:59:24.094Z,97974.38
2023-03-01T20:01:52.399Z,97969.09
2023-03-01T20:04:19.005Z,97983.50
2023-03-01T20:07:06.310Z,97981.53
2023-03-01T20:09:36.703Z,97957.19
2023-03-01T20:12:06.468Z,97975.16
2023-03-01T20:14:38.607Z,97967.97
2023-03-01T20:17:15.975Z,97974.16
2023-03-01T20:19:42.672Z,97918.91
2023-03-01T20:22:09.172Z,97981.66
2023-03-01T20:24:35.641Z,97979.75
2023-03-01T20:27:04.397Z,97969.69
2023-03-01T20:29:30.912Z,97962.88
2023-03-01T20:31:57.599Z,97976.84
2023-03-01T20:34:24.391Z,97976.31
2023-03-01T20:36:50.914Z,97968.13
2023-03-01T20:39:17.442Z,97942.72
2023-03-01T20:41:43.964Z,97976.75
2023-03-01T20:44:10.680Z,97992.28
2023-03-01T20:46:38.932Z,97984.31
2023-03-01T20:49:07.244Z,97986.88
2023-03-01T20:51:37.008Z,97980.81
2023-03-01T20:54:06.586Z,97971.50
2023-03-01T20:56:36.727Z,97972.16
2023-03-01T20:59:14.518Z,97976.19
2023-03-01T21:01:40.975Z,97964.44
2023-03-01T21:04:07.555Z,97921.53
2023-03-01T21:06:38.041Z,97969.44
2023-03-01T21:09:10.059Z,97929.31
2023-03-01T21:11:37.354Z,97955.09
2023-03-01T21:14:06.829Z,97965.63
2023-03-01T21:16:37.435Z,97953.03
2023-03-01T21:19:05.080Z,97957.06
2023-03-01T21:21:31.582Z,97947.34
2023-03-01T21:23:58.066Z,97945.56
2023-03-01T21:26:26.279Z,97946.69
2023-03-01T21:29:06.854Z,97948.09
2023-03-01T21:31:38.237Z,97942.53
2023-03-01T21:34:07.319Z,97929.31
2023-03-01T21:36:37.983Z,97941.16
2023-03-01T21:39:08.195Z,97951.44
2023-03-01T21:41:38.046Z,97938.53
2023-03-01T21:44:07.508Z,97954.19
2023-03-01T21:46:38.264Z,97936.09
2023-03-01T21:49:07.334Z,97920.41
2023-03-01T21:51:37.054Z,97938.03
2023-03-01T21:54:03.776Z,97938.03
2023-03-01T21:56:34.473Z,97933.63
2023-03-01T21:59:01.649Z,97906.34
2023-03-01T22:01:29.410Z,97923.03
2023-03-01T22:03:57.787Z,97925.78
2023-03-01T22:06:29.716Z,97929.47
2023-03-01T22:09:09.024Z,97920.91
2023-03-01T22:11:39.463Z,97901.88
2023-03-01T22:14:10.101Z,97910.31
2023-03-01T22:16:39.038Z,97920.81
2023-03-01T22:19:11.245Z,97921.03
2023-03-01T22:21:49.687Z,97912.88
2023-03-01T22:24:21.597Z,97914.28
2023-03-01T22:26:49.191Z,97902.97
2023-03-01T22:29:25.299Z,97902.38
2023-03-01T22:31:52.872Z,97914.50
2023-03-01T22:34:22.188Z,97890.28
2023-03-01T22:36:48.852Z,97892.22
2023-03-01T22:39:17.614Z,97893.34
2023-03-01T22:41:46.154Z,97902.19
2023-03-01T22:44:20.601Z,97877.72
2023-03-01T22:46:47.193Z,97888.22
2023-03-01T22:49:14.252Z,97889.22
2023-03-01T22:51:42.532Z,97895.75
2023-03-01T22:54:11.196Z,97895.47
2023-03-01T22:56:41.619Z,97889.75
2023-03-01T22:59:14.146Z,97889.16
2023-03-01T23:01:46.473Z,97870.81
2023-03-01T23:04:14.002Z,97889.22
2023-03-01T23:06:55.737Z,97873.09
2023-03-01T23:09:34.256Z,97895.53
2023-03-01T23:12:02.512Z,97901.59
2023-03-01T23:14:31.712Z,97893.19
2023-03-01T23:17:00.610Z,97905.00
2023-03-01T23:19:28.238Z,97891.16
2023-03-01T23:21:54.920Z,97900.13
2023-03-01T23:24:23.448Z,97900.81
2023-03-01T23:26:55.826Z,97901.59
2023-03-01T23:29:22.671Z,97905.75
2023-03-01T23:31:49.260Z,97904.41
2023-03-01T23:34:15.806Z,97907.41
2023-03-01T23:36:44.912Z,97899.25
2023-03-01T23:39:14.533Z,97895.41
2023-03-01T23:41:43.947Z,97903.00
2023-03-01T23:44:19.599Z,97906.03
2023-03-01T23:46:47.602Z,97900.38
2023-03-01T23:49:16.680Z,97904.00
2023-03-01T23:51:45.625Z,97901.94
2023-03-01T23:54:20.452Z,97890.56
2023-03-01T23:56:47.284Z,97906.91
2023-03-01T23:59:22.551Z,97907.63
